Time;durP1;ratioP1;P1;durP2;ratioP2;P2;SDS_P1;SDS_P2;PMS_P1;PMS_P2;Temp;Humidity;BMP_temperature;BMP_pressure;BME280_temperature;BME280_humidity;BME280_pressure;Samples;Min_cycle;Max_cycle;Signal;HPM_P1;HPM_P2
2021/08/05 00:02:12;;;;;;;6.57;4.90;;;24.60;59.70;;;;;;5026332;28;20025;-60
2021/08/05 00:04:38;;;;;;;5.20;4.38;;;24.60;59.70;;;;;;5028141;28;20484;-61
2021/08/05 00:07:04;;;;;;;5.80;4.57;;;24.60;59.70;;;;;;5027586;28;21492;-61
2021/08/05 00:09:30;;;;;;;6.22;4.53;;;24.60;60.10;;;;;;5026106;28;20470;-60
2021/08/05 00:11:56;;;;;;;5.45;4.00;;;24.60;60.20;;;;;;5027650;28;20028;-60
2021/08/05 00:14:22;;;;;;;6.00;3.92;;;24.60;60.50;;;;;;5026731;28;20105;-60
2021/08/05 00:16:47;;;;;;;5.72;4.22;;;24.60;60.70;;;;;;5026423;28;20041;-60
2021/08/05 00:19:13;;;;;;;6.05;4.70;;;24.60;61.00;;;;;;5024323;28;20025;-60
2021/08/05 00:21:39;;;;;;;4.57;3.97;;;24.60;61.10;;;;;;5027588;28;20438;-60
2021/08/05 00:24:04;;;;;;;3.97;3.60;;;24.60;61.20;;;;;;5026920;28;20375;-60
2021/08/05 00:26:30;;;;;;;4.22;3.63;;;24.60;61.30;;;;;;5027220;28;20034;-60
2021/08/05 00:28:56;;;;;;;4.85;4.20;;;24.60;61.50;;;;;;5027182;28;20147;-60
2021/08/05 00:31:21;;;;;;;5.82;4.20;;;24.60;61.50;;;;;;5025089;28;20022;-61
2021/08/05 00:33:47;;;;;;;4.93;3.70;;;24.60;61.20;;;;;;5022282;28;20077;-60
2021/08/05 00:36:13;;;;;;;4.35;3.70;;;24.70;61.30;;;;;;5025428;28;20022;-60
2021/08/05 00:38:39;;;;;;;3.88;3.47;;;24.70;61.10;;;;;;5024270;28;20116;-61
2021/08/05 00:41:04;;;;;;;4.05;3.58;;;24.70;61.00;;;;;;5024554;28;20038;-60
2021/08/05 00:43:30;;;;;;;4.00;3.45;;;24.70;60.80;;;;;;5025575;28;20025;-60
2021/08/05 00:45:56;;;;;;;3.75;3.30;;;24.70;60.60;;;;;;5026931;28;20103;-61
2021/08/05 00:48:21;;;;;;;3.88;3.13;;;24.70;60.30;;;;;;5023445;28;20033;-60
2021/08/05 00:50:48;;;;;;;3.78;3.40;;;24.70;59.70;;;;;;5026107;28;20030;-60
2021/08/05 00:53:17;;;;;;;13.82;3.53;;;24.70;59.40;;;;;;5022695;28;20033;-60
2021/08/05 00:55:44;;;;;;;4.03;3.50;;;24.70;59.10;;;;;;5026807;28;20420;-60
2021/08/05 00:58:10;;;;;;;4.43;3.80;;;24.70;59.00;;;;;;5024136;28;20024;-60
2021/08/05 01:00:38;;;;;;;4.10;3.65;;;24.70;58.90;;;;;;5027449;28;20037;-60
2021/08/05 01:03:16;;;;;;;5.78;3.40;;;24.70;58.60;;;;;;5023632;28;20109;-60
2021/08/05 01:05:46;;;;;;;4.38;3.70;;;24.70;58.40;;;;;;5025375;28;20141;-60
2021/08/05 01:08:17;;;;;;;4.00;3.60;;;24.60;58.20;;;;;;5023962;28;20163;-60
2021/08/05 01:10:52;;;;;;;4.57;3.80;;;24.60;58.20;;;;;;5025159;28;20021;-60
2021/08/05 01:13:27;;;;;;;4.50;3.75;;;24.60;58.10;;;;;;5023196;28;20025;-60
2021/08/05 01:15:54;;;;;;;8.45;3.90;;;24.60;58.00;;;;;;5027020;28;20052;-60
2021/08/05 01:18:31;;;;;;;4.50;3.92;;;24.50;58.00;;;;;;5027313;28;20022;-60
2021/08/05 01:21:02;;;;;;;5.30;3.90;;;24.50;58.00;;;;;;5026910;28;20025;-60
2021/08/05 01:23:32;;;;;;;6.30;3.90;;;24.50;58.00;;;;;;5026756;28;20426;-60
2021/08/05 01:26:11;;;;;;;5.57;3.75;;;24.50;58.20;;;;;;5028898;28;20024;-61
2021/08/05 01:28:39;;;;;;;5.28;4.28;;;24.50;58.40;;;;;;5025275;28;20044;-61
2021/08/05 01:31:06;;;;;;;5.63;4.40;;;24.40;58.40;;;;;;5024944;28;20030;-60
2021/08/05 01:33:32;;;;;;;5.47;3.70;;;24.40;58.80;;;;;;5027057;28;20041;-60
2021/08/05 01:35:59;;;;;;;6.07;4.32;;;24.30;59.10;;;;;;5026211;28;20030;-60
2021/08/05 01:38:25;;;;;;;6.00;4.47;;;24.40;59.10;;;;;;5027960;28;20036;-60
2021/08/05 01:40:53;;;;;;;5.20;4.57;;;24.30;59.00;;;;;;5026675;28;20037;-60
2021/08/05 01:43:21;;;;;;;6.22;4.65;;;24.30;59.10;;;;;;5028511;28;20434;-60
2021/08/05 01:45:47;;;;;;;5.40;4.90;;;24.30;59.50;;;;;;5026960;28;20410;-60
2021/08/05 01:48:15;;;;;;;7.00;5.72;;;24.20;60.60;;;;;;5026177;28;20057;-60
2021/08/05 01:50:44;;;;;;;5.85;5.25;;;24.20;62.00;;;;;;5027372;28;20038;-60
2021/08/05 01:53:12;;;;;;;7.18;6.15;;;24.20;63.20;;;;;;5027275;28;20433;-61
2021/08/05 01:55:37;;;;;;;6.38;5.78;;;24.20;64.20;;;;;;5027797;28;20588;-60
2021/08/05 01:58:03;;;;;;;8.75;6.53;;;24.20;65.10;;;;;;5027310;28;20046;-61
2021/08/05 02:00:29;;;;;;;7.05;6.03;;;24.10;65.70;;;;;;5026602;28;20486;-61
2021/08/05 02:02:55;;;;;;;9.07;6.90;;;24.10;66.30;;;;;;5027329;28;20048;-61
2021/08/05 02:05:43;;;;;;;7.03;6.32;;;24.10;67.10;;;;;;5028435;28;20044;-59
2021/08/05 02:08:12;;;;;;;9.25;7.25;;;24.00;67.70;;;;;;5032125;28;20026;-61
2021/08/05 02:10:40;;;;;;;8.52;6.90;;;24.00;67.90;;;;;;5033072;28;20398;-60
2021/08/05 02:13:14;;;;;;;7.25;6.53;;;24.00;68.30;;;;;;5029129;28;20369;-61
2021/08/05 02:16:09;;;;;;;7.95;6.40;;;24.10;68.40;;;;;;5035679;28;20037;-61
2021/08/05 02:18:35;;;;;;;10.85;6.82;;;24.10;68.80;;;;;;5034678;28;20393;-61
2021/08/05 02:21:02;;;;;;;8.45;6.22;;;24.10;68.90;;;;;;5036196;28;20044;-61
2021/08/05 02:23:30;;;;;;;9.30;6.45;;;24.00;69.00;;;;;;5035801;28;20052;-61
2021/08/05 02:25:56;;;;;;;10.88;6.70;;;24.10;69.20;;;;;;5036624;28;20373;-61
2021/08/05 02:28:24;;;;;;;7.45;6.13;;;24.10;69.40;;;;;;5036249;28;20025;-61
2021/08/05 02:30:52;;;;;;;8.15;6.53;;;24.10;69.50;;;;;;5035992;28;20037;-61
2021/08/05 02:33:20;;;;;;;7.55;6.47;;;24.10;69.60;;;;;;5035773;28;20120;-61
2021/08/05 02:35:47;;;;;;;7.78;6.40;;;24.10;69.40;;;;;;5035962;28;20452;-61
2021/08/05 02:38:14;;;;;;;7.25;5.93;;;24.10;69.50;;;;;;5034787;28;20041;-61
2021/08/05 02:40:42;;;;;;;7.20;6.40;;;24.10;69.80;;;;;;5035694;28;20124;-61
2021/08/05 02:43:09;;;;;;;6.93;6.22;;;24.20;69.60;;;;;;5036409;28;20585;-61
2021/08/05 02:45:36;;;;;;;8.38;6.75;;;24.20;69.80;;;;;;5035997;28;20057;-61
2021/08/05 02:48:04;;;;;;;8.20;6.28;;;24.20;69.90;;;;;;5036355;28;20025;-61
2021/08/05 02:50:31;;;;;;;6.80;6.10;;;24.20;70.00;;;;;;5035670;28;20013;-61
2021/08/05 02:52:57;;;;;;;10.82;6.10;;;24.20;70.00;;;;;;5035480;28;20059;-61
2021/08/05 02:55:23;;;;;;;6.50;5.85;;;24.20;69.80;;;;;;5035564;28;20029;-61
2021/08/05 02:57:51;;;;;;;6.78;6.07;;;24.20;70.00;;;;;;5035743;28;20060;-61
2021/08/05 03:00:17;;;;;;;7.90;6.32;;;24.20;69.80;;;;;;5036066;28;20116;-61
2021/08/05 03:02:43;;;;;;;8.60;6.57;;;24.30;69.60;;;;;;5035763;28;20533;-61
2021/08/05 03:05:10;;;;;;;8.98;6.28;;;24.30;69.40;;;;;;5036174;28;20052;-61
2021/08/05 03:07:36;;;;;;;7.15;6.45;;;24.30;69.30;;;;;;5035595;28;20029;-61
2021/08/05 03:10:03;;;;;;;6.32;5.72;;;24.30;68.90;;;;;;5035989;28;20335;-61
2021/08/05 03:12:28;;;;;;;6.90;6.20;;;24.30;68.50;;;;;;5035753;28;20071;-61
2021/08/05 03:14:54;;;;;;;7.20;6.03;;;24.30;68.10;;;;;;5034919;28;20057;-61
2021/08/05 03:17:20;;;;;;;5.57;5.07;;;24.30;67.60;;;;;;5035056;28;20025;-61
2021/08/05 03:19:45;;;;;;;7.82;6.28;;;24.30;67.20;;;;;;5035398;28;20021;-61
2021/08/05 03:22:11;;;;;;;7.93;5.40;;;24.30;66.90;;;;;;5033952;28;20026;-61
2021/08/05 03:24:36;;;;;;;7.22;5.60;;;24.40;66.50;;;;;;5032659;28;20132;-61
2021/08/05 03:27:02;;;;;;;6.63;5.70;;;24.40;66.70;;;;;;5031673;28;20079;-61
2021/08/05 03:29:28;;;;;;;6.18;5.57;;;24.40;67.70;;;;;;5035641;28;20105;-61
2021/08/05 03:31:54;;;;;;;11.82;10.63;;;24.40;67.00;;;;;;5030183;28;20063;-61
2021/08/05 03:34:19;;;;;;;16.38;14.77;;;24.50;66.30;;;;;;5035623;28;20083;-61
2021/08/05 03:36:45;;;;;;;16.70;15.02;;;24.50;65.60;;;;;;5033926;28;20034;-61
2021/08/05 03:39:11;;;;;;;10.95;9.82;;;24.50;65.20;;;;;;5016105;28;20040;-61
2021/08/05 03:41:36;;;;;;;10.90;9.85;;;24.60;65.30;;;;;;5029655;28;20033;-61
2021/08/05 03:44:02;;;;;;;18.92;11.85;;;24.60;65.40;;;;;;5026381;28;20022;-60
2021/08/05 03:46:28;;;;;;;13.25;9.90;;;24.60;65.30;;;;;;5027525;28;20065;-61
2021/08/05 03:48:53;;;;;;;10.88;8.82;;;24.70;64.50;;;;;;5035357;28;20034;-61
2021/08/05 03:51:19;;;;;;;12.43;8.93;;;24.70;63.90;;;;;;5030924;28;20026;-61
2021/08/05 03:53:45;;;;;;;9.43;8.23;;;24.80;63.40;;;;;;5035166;28;20060;-61
2021/08/05 03:56:11;;;;;;;10.57;8.48;;;24.80;63.00;;;;;;5030858;28;20044;-61
2021/08/05 03:58:37;;;;;;;8.63;7.72;;;24.80;62.70;;;;;;5029093;28;20048;-62
2021/08/05 04:01:02;;;;;;;10.07;8.30;;;24.80;62.20;;;;;;5021236;28;20446;-63
2021/08/05 04:03:28;;;;;;;10.73;7.63;;;24.90;62.00;;;;;;5031794;28;20112;-60
2021/08/05 04:05:54;;;;;;;10.98;7.72;;;24.90;61.90;;;;;;5020444;28;20044;-60
2021/08/05 04:08:19;;;;;;;8.27;7.47;;;24.90;61.80;;;;;;5027752;28;20029;-60
2021/08/05 04:10:45;;;;;;;8.15;6.93;;;24.90;61.80;;;;;;5021190;28;20026;-60
2021/08/05 04:13:13;;;;;;;10.65;6.65;;;25.00;61.80;;;;;;5014361;28;20493;-60
2021/08/05 04:15:40;;;;;;;11.60;7.07;;;25.10;61.70;;;;;;5029285;28;20041;-60
2021/08/05 04:18:06;;;;;;;8.38;7.45;;;25.40;61.90;;;;;;5034580;28;20033;-60
2021/08/05 04:20:32;;;;;;;8.32;7.30;;;25.80;61.30;;;;;;5034487;28;20480;-61
2021/08/05 04:22:57;;;;;;;10.88;7.20;;;26.20;60.30;;;;;;5032280;28;20033;-61
2021/08/05 04:25:23;;;;;;;9.30;7.53;;;26.60;59.60;;;;;;5033931;28;20040;-60
2021/08/05 04:27:49;;;;;;;10.77;8.27;;;26.90;59.20;;;;;;5033039;28;20027;-60
2021/08/05 04:30:14;;;;;;;7.93;7.13;;;27.10;58.70;;;;;;5023324;28;20021;-60
2021/08/05 04:32:41;;;;;;;9.43;8.27;;;27.30;58.50;;;;;;5034442;28;20072;-60
2021/08/05 04:35:08;;;;;;;9.43;8.45;;;27.50;58.30;;;;;;5034381;28;20026;-60
2021/08/05 04:37:34;;;;;;;12.70;7.53;;;27.70;58.10;;;;;;5033218;28;20071;-60
2021/08/05 04:40:00;;;;;;;9.90;7.75;;;27.90;57.40;;;;;;5034322;28;20065;-60
2021/08/05 04:42:25;;;;;;;9.65;8.38;;;28.10;57.10;;;;;;5033028;28;20025;-60
2021/08/05 04:44:51;;;;;;;11.68;8.00;;;28.30;57.10;;;;;;5034310;28;20100;-60
2021/08/05 04:47:17;;;;;;;12.02;8.13;;;28.50;57.00;;;;;;5034046;28;20423;-61
2021/08/05 04:49:42;;;;;;;10.63;7.38;;;28.80;56.90;;;;;;5033162;28;20021;-61
2021/08/05 04:52:08;;;;;;;9.77;7.05;;;29.30;56.30;;;;;;5033965;28;20032;-61
2021/08/05 04:54:34;;;;;;;10.18;7.90;;;29.90;55.50;;;;;;5034216;28;20183;-61
2021/08/05 04:57:01;;;;;;;9.88;7.15;;;30.50;54.40;;;;;;5031037;28;20035;-61
2021/08/05 04:59:27;;;;;;;8.18;7.25;;;31.10;53.50;;;;;;5028142;28;20477;-61
2021/08/05 05:01:53;;;;;;;8.48;7.63;;;31.70;52.40;;;;;;5031519;28;20022;-61
2021/08/05 05:04:18;;;;;;;14.18;7.63;;;32.00;51.50;;;;;;5030847;28;20432;-61
2021/08/05 05:06:44;;;;;;;10.77;8.35;;;32.40;51.00;;;;;;5030438;28;20036;-61
2021/08/05 05:09:09;;;;;;;10.55;7.47;;;32.80;50.10;;;;;;5032856;28;20025;-61
2021/08/05 05:11:35;;;;;;;10.35;8.15;;;33.10;49.50;;;;;;5032397;28;20026;-61
2021/08/05 05:14:01;;;;;;;8.75;7.85;;;33.20;48.90;;;;;;5030453;28;20048;-61
2021/08/05 05:16:27;;;;;;;10.20;8.00;;;33.10;48.60;;;;;;5030754;28;20033;-61
2021/08/05 05:18:52;;;;;;;12.85;8.15;;;32.90;48.60;;;;;;5029511;28;20033;-61
2021/08/05 05:21:18;;;;;;;10.77;7.60;;;32.50;48.80;;;;;;5022870;28;20336;-61
2021/08/05 05:23:44;;;;;;;11.18;8.20;;;32.00;49.40;;;;;;5032311;28;20099;-61
2021/08/05 05:26:09;;;;;;;11.55;8.23;;;31.60;49.90;;;;;;5028627;28;20071;-61
2021/08/05 05:28:37;;;;;;;9.48;8.43;;;31.30;50.70;;;;;;5031106;28;20025;-61
2021/08/05 05:31:03;;;;;;;10.50;7.75;;;31.00;51.10;;;;;;5030025;28;20030;-60
2021/08/05 05:33:29;;;;;;;9.55;7.97;;;30.90;51.90;;;;;;5030445;28;20038;-60
2021/08/05 05:35:56;;;;;;;9.13;8.05;;;31.10;51.20;;;;;;5037131;28;20029;-60
2021/08/05 05:38:22;;;;;;;11.05;8.90;;;31.30;51.30;;;;;;5034819;28;20029;-60
2021/08/05 05:40:48;;;;;;;11.07;8.95;;;31.30;51.00;;;;;;5031213;28;20037;-59
2021/08/05 05:43:14;;;;;;;10.70;9.13;;;31.30;51.00;;;;;;5031235;28;20447;-60
2021/08/05 05:45:40;;;;;;;16.00;8.75;;;31.20;51.20;;;;;;5033424;28;20052;-60
2021/08/05 05:48:08;;;;;;;9.85;8.85;;;31.00;51.20;;;;;;5026106;28;20029;-62
2021/08/05 05:50:35;;;;;;;9.35;8.13;;;30.70;51.50;;;;;;5029100;28;20397;-60
2021/08/05 05:53:01;;;;;;;9.60;8.60;;;30.50;51.90;;;;;;5028946;28;20021;-60
2021/08/05 05:55:27;;;;;;;11.02;8.32;;;30.30;52.30;;;;;;5028865;28;20090;-59
2021/08/05 05:57:53;;;;;;;10.55;8.60;;;30.10;52.50;;;;;;5030388;28;20033;-59
2021/08/05 06:00:19;;;;;;;11.60;8.35;;;29.90;52.70;;;;;;5031659;28;20037;-59
2021/08/05 06:02:45;;;;;;;10.82;8.63;;;29.80;52.80;;;;;;5028075;28;20044;-57
2021/08/05 06:05:11;;;;;;;12.77;10.07;;;29.70;53.20;;;;;;5027659;28;20031;-57
2021/08/05 06:07:48;;;;;;;13.90;10.55;;;29.50;53.20;;;;;;5029873;28;21205;-61
2021/08/05 06:10:16;;;;;;;11.20;9.77;;;29.50;54.10;;;;;;5033621;28;20147;-57
2021/08/05 06:12:42;;;;;;;12.25;9.60;;;29.30;53.80;;;;;;5035996;28;20052;-59
2021/08/05 06:15:09;;;;;;;13.68;10.07;;;29.20;54.10;;;;;;5028158;28;20037;-60
2021/08/05 06:17:34;;;;;;;12.43;9.45;;;29.10;54.20;;;;;;5025048;28;20038;-58
2021/08/05 06:20:01;;;;;;;11.57;9.35;;;29.00;54.50;;;;;;5027368;28;20310;-58
2021/08/05 06:22:26;;;;;;;10.98;9.88;;;29.00;54.70;;;;;;5028136;28;20025;-59
2021/08/05 06:24:52;;;;;;;14.90;11.15;;;28.90;54.70;;;;;;5024480;28;20475;-62
2021/08/05 06:27:21;;;;;;;13.45;9.77;;;28.90;55.00;;;;;;5020882;28;20033;-59
2021/08/05 06:29:47;;;;;;;11.82;9.50;;;28.80;54.90;;;;;;5023874;28;20040;-59
2021/08/05 06:32:13;;;;;;;13.38;10.43;;;28.80;55.20;;;;;;5027667;28;20362;-63
2021/08/05 06:34:39;;;;;;;14.55;9.80;;;28.80;55.10;;;;;;5028960;28;20033;-60
2021/08/05 06:37:04;;;;;;;19.38;11.82;;;28.80;55.20;;;;;;5030741;28;20037;-60
2021/08/05 06:39:30;;;;;;;25.33;13.57;;;28.80;55.00;;;;;;5027438;28;20034;-61
2021/08/05 06:41:56;;;;;;;27.85;13.73;;;28.80;55.00;;;;;;5025960;28;20075;-59
2021/08/05 06:44:21;;;;;;;25.42;12.57;;;28.80;55.10;;;;;;5026597;28;20025;-59
2021/08/05 06:46:47;;;;;;;38.85;18.65;;;28.80;55.40;;;;;;5019695;28;20316;-59
2021/08/05 06:49:12;;;;;;;47.22;24.48;;;28.80;55.40;;;;;;5025756;28;20029;-59
2021/08/05 06:51:38;;;;;;;61.50;29.23;;;28.80;55.40;;;;;;5023358;28;20029;-58
2021/08/05 06:54:04;;;;;;;63.78;35.63;;;28.80;55.30;;;;;;5029048;28;20481;-60
2021/08/05 06:56:29;;;;;;;76.03;42.38;;;28.80;55.50;;;;;;5026585;28;20604;-59
2021/08/05 06:58:55;;;;;;;49.38;28.77;;;28.90;55.60;;;;;;5019473;28;20037;-60
2021/08/05 07:01:21;;;;;;;32.63;19.95;;;29.00;55.90;;;;;;5011469;28;20033;-59
2021/08/05 07:03:46;;;;;;;51.95;36.30;;;29.10;55.80;;;;;;5021608;28;20034;-59
2021/08/05 07:06:12;;;;;;;78.10;58.53;;;29.10;55.70;;;;;;5018765;28;20033;-58
2021/08/05 07:08:37;;;;;;;136.05;99.72;;;29.20;55.60;;;;;;5020382;28;20022;-59
2021/08/05 07:11:03;;;;;;;108.20;86.22;;;29.40;55.60;;;;;;5014117;28;20164;-58
2021/08/05 07:13:29;;;;;;;114.15;90.90;;;29.40;55.20;;;;;;5019045;28;20325;-59
2021/08/05 07:15:54;;;;;;;119.05;98.15;;;29.50;55.10;;;;;;5016152;28;20026;-60
2021/08/05 07:18:20;;;;;;;132.32;106.00;;;29.60;55.20;;;;;;5019298;28;20041;-60
2021/08/05 07:20:46;;;;;;;134.50;107.63;;;29.60;55.10;;;;;;5020141;28;20060;-59
2021/08/05 07:23:11;;;;;;;122.95;96.50;;;29.60;55.10;;;;;;5018962;28;20053;-58
2021/08/05 07:25:37;;;;;;;89.20;70.53;;;29.60;55.10;;;;;;5016165;28;20038;-58
2021/08/05 07:28:03;;;;;;;68.90;55.90;;;29.70;55.10;;;;;;5017074;28;20026;-58
2021/08/05 07:30:30;;;;;;;35.78;27.92;;;29.70;54.80;;;;;;5016863;28;20176;-59
2021/08/05 07:32:56;;;;;;;21.25;16.42;;;29.70;54.40;;;;;;5017883;28;20562;-59
2021/08/05 07:35:22;;;;;;;15.15;12.70;;;29.70;54.10;;;;;;5015166;28;20148;-57
2021/08/05 07:37:47;;;;;;;14.73;11.98;;;29.70;54.10;;;;;;5015066;28;20057;-59
2021/08/05 07:40:14;;;;;;;11.20;9.43;;;29.70;54.00;;;;;;5017275;28;20440;-60
2021/08/05 07:42:39;;;;;;;19.65;15.85;;;29.70;53.80;;;;;;5019182;28;20417;-59
2021/08/05 07:45:06;;;;;;;16.10;13.40;;;29.70;54.00;;;;;;5017735;28;20026;-60
2021/08/05 07:47:32;;;;;;;10.50;7.10;;;29.70;54.10;;;;;;5007693;28;20037;-60
2021/08/05 07:49:57;;;;;;;15.45;10.93;;;29.70;53.70;;;;;;5012065;28;20069;-60
2021/08/05 07:52:23;;;;;;;27.02;20.95;;;29.70;53.60;;;;;;5011440;28;20050;-59
2021/08/05 07:54:49;;;;;;;8.90;6.78;;;29.70;54.50;;;;;;5015865;28;20064;-60
2021/08/05 07:57:15;;;;;;;9.20;7.32;;;29.80;53.90;;;;;;5017553;28;20033;-60
2021/08/05 07:59:42;;;;;;;7.80;6.35;;;29.80;53.70;;;;;;5011292;28;20041;-61
2021/08/05 08:02:08;;;;;;;5.97;4.97;;;29.80;53.60;;;;;;5014566;28;20029;-61
2021/08/05 08:04:34;;;;;;;6.45;5.50;;;29.80;53.60;;;;;;5014051;28;20083;-60
2021/08/05 08:07:00;;;;;;;9.70;5.25;;;29.80;53.30;;;;;;5014180;28;21209;-60
2021/08/05 08:09:26;;;;;;;7.15;5.57;;;29.80;53.20;;;;;;5014621;28;20498;-61
2021/08/05 08:11:52;;;;;;;9.65;6.40;;;29.90;53.00;;;;;;5014799;28;20960;-59
2021/08/05 08:14:18;;;;;;;13.68;5.70;;;29.90;53.20;;;;;;5014529;28;20044;-59
2021/08/05 08:16:44;;;;;;;7.75;5.00;;;29.90;53.10;;;;;;5013656;28;20083;-59
2021/08/05 08:19:09;;;;;;;9.90;5.60;;;30.00;52.70;;;;;;4996515;28;20029;-59
2021/08/05 08:21:35;;;;;;;7.00;4.50;;;30.00;52.70;;;;;;5005509;28;20394;-58
2021/08/05 08:24:01;;;;;;;7.88;4.60;;;30.00;52.60;;;;;;5014788;28;20050;-58
2021/08/05 08:26:27;;;;;;;7.88;5.03;;;30.00;52.40;;;;;;5016240;28;20027;-58
2021/08/05 08:28:52;;;;;;;6.20;4.07;;;30.00;52.60;;;;;;5013147;28;20029;-59
2021/08/05 08:31:18;;;;;;;5.25;4.13;;;30.00;52.20;;;;;;5015415;28;20032;-56
2021/08/05 08:33:44;;;;;;;7.22;4.32;;;30.00;52.40;;;;;;5015077;28;20034;-59
2021/08/05 08:36:10;;;;;;;5.63;4.30;;;30.00;52.20;;;;;;5017491;28;20091;-58
2021/08/05 08:38:36;;;;;;;5.20;4.35;;;29.90;52.20;;;;;;5014480;28;20656;-59
2021/08/05 08:41:02;;;;;;;6.72;4.45;;;30.00;52.50;;;;;;5015793;28;20493;-60
2021/08/05 08:43:28;;;;;;;5.57;4.30;;;29.90;52.50;;;;;;5022189;28;20045;-59
2021/08/05 08:45:55;;;;;;;8.98;4.85;;;29.90;52.80;;;;;;5015269;28;20028;-58
2021/08/05 08:48:27;;;;;;;6.55;4.63;;;29.90;52.80;;;;;;5016707;28;20080;-60
2021/08/05 08:50:54;;;;;;;6.47;4.63;;;29.80;53.00;;;;;;5016352;28;20108;-62
2021/08/05 08:53:25;;;;;;;8.20;4.78;;;29.80;53.10;;;;;;5011459;28;20449;-62
2021/08/05 08:55:51;;;;;;;7.38;4.78;;;29.80;52.90;;;;;;5015072;28;20033;-61
2021/08/05 08:58:18;;;;;;;7.13;5.10;;;29.80;53.00;;;;;;5018063;28;20029;-61
2021/08/05 09:00:44;;;;;;;5.93;4.63;;;29.80;53.00;;;;;;5019274;28;20049;-61
2021/08/05 09:03:09;;;;;;;5.82;4.70;;;29.80;53.00;;;;;;5009506;28;20129;-62
2021/08/05 09:05:35;;;;;;;6.13;4.40;;;29.70;53.00;;;;;;5013536;28;20426;-62
2021/08/05 09:08:02;;;;;;;7.03;4.18;;;29.80;53.10;;;;;;5015024;28;20888;-62
2021/08/05 09:10:29;;;;;;;5.28;3.80;;;29.70;53.50;;;;;;5018718;28;20091;-60
2021/08/05 09:12:56;;;;;;;6.57;4.03;;;29.70;53.00;;;;;;5013043;28;20045;-60
2021/08/05 09:15:42;;;;;;;5.35;4.22;;;29.70;52.90;;;;;;5016083;28;20052;-61
2021/08/05 09:18:26;;;;;;;6.85;4.55;;;29.70;52.90;;;;;;5019515;28;20037;-60
2021/08/05 09:21:08;;;;;;;6.55;4.20;;;29.60;53.00;;;;;;5015467;28;20037;-61
2021/08/05 09:24:09;;;;;;;5.07;3.90;;;29.60;53.20;;;;;;5017537;28;20049;-62
2021/08/05 09:26:43;;;;;;;6.18;4.60;;;29.60;53.10;;;;;;5016822;28;20656;-62
2021/08/05 09:29:19;;;;;;;4.82;3.88;;;29.60;53.20;;;;;;5014403;28;20026;-61
2021/08/05 09:31:46;;;;;;;6.15;4.00;;;29.60;52.70;;;;;;5020980;28;20124;-59
2021/08/05 09:34:14;;;;;;;6.97;3.63;;;29.50;52.50;;;;;;5012317;28;20029;-60
2021/08/05 09:36:41;;;;;;;5.60;3.83;;;29.60;52.30;;;;;;5017325;28;20397;-60
2021/08/05 09:39:19;;;;;;;6.85;4.07;;;29.60;51.80;;;;;;5015967;28;20439;-61
2021/08/05 09:41:57;;;;;;;8.45;3.70;;;29.60;51.50;;;;;;5015506;28;20123;-61
2021/08/05 09:44:23;;;;;;;5.85;3.58;;;29.60;51.50;;;;;;5013181;28;20473;-60
2021/08/05 09:47:06;;;;;;;5.68;3.58;;;29.60;51.20;;;;;;5015391;28;20018;-62
2021/08/05 09:49:37;;;;;;;8.98;4.00;;;29.50;50.80;;;;;;5013638;28;20113;-60
2021/08/05 09:52:03;;;;;;;;;;;29.50;50.90;;;;;;5018539;28;20460;-61
2021/08/05 09:54:48;;;;;;;6.07;3.45;;;29.50;51.20;;;;;;5013889;28;19917;-62
2021/08/05 09:57:23;;;;;;;6.57;3.60;;;29.50;51.20;;;;;;5016071;28;20029;-59
2021/08/05 09:59:55;;;;;;;6.72;3.35;;;29.50;51.00;;;;;;5016606;28;20492;-60
2021/08/05 10:02:22;;;;;;;5.15;3.53;;;29.50;51.10;;;;;;5007948;28;20449;-60
2021/08/05 10:04:48;;;;;;;4.97;3.63;;;29.40;51.20;;;;;;5012145;28;20345;-61
2021/08/05 10:07:15;;;;;;;4.43;3.90;;;29.40;51.50;;;;;;5006622;28;20747;-61
2021/08/05 10:09:41;;;;;;;6.18;3.88;;;29.40;51.30;;;;;;4990404;28;20032;-60
2021/08/05 10:12:31;;;;;;;10.23;3.60;;;29.40;51.10;;;;;;5015449;28;20073;-60
2021/08/05 10:15:11;;;;;;;6.53;3.67;;;29.30;51.00;;;;;;5020120;28;20104;-60
2021/08/05 10:17:38;;;;;;;6.70;3.72;;;29.40;51.10;;;;;;5018160;28;21429;-60
2021/08/05 10:20:10;;;;;;;11.38;3.90;;;29.30;50.70;;;;;;5014818;28;20041;-60
2021/08/05 10:22:37;;;;;;;5.05;3.40;;;29.30;50.80;;;;;;5022867;28;20456;-60
2021/08/05 10:25:05;;;;;;;6.22;3.22;;;29.30;50.40;;;;;;5018796;28;20577;-60
2021/08/05 10:27:30;;;;;;;8.18;3.50;;;29.30;50.10;;;;;;5014431;28;20191;-60
2021/08/05 10:29:57;;;;;;;4.10;3.33;;;29.20;50.10;;;;;;5014138;28;20138;-60
2021/08/05 10:32:23;;;;;;;4.85;3.30;;;29.20;49.90;;;;;;5018590;28;20055;-60
2021/08/05 10:34:51;;;;;;;3.72;3.03;;;29.20;49.70;;;;;;5020187;28;20041;-60
2021/08/05 10:37:17;;;;;;;4.43;3.45;;;29.20;49.50;;;;;;5022109;28;20072;-60
2021/08/05 10:39:44;;;;;;;7.50;4.03;;;29.20;50.30;;;;;;5023332;28;20116;-60
2021/08/05 10:42:14;;;;;;;7.60;3.92;;;29.20;50.60;;;;;;5021127;28;20033;-60
2021/08/05 10:44:41;;;;;;;6.80;3.75;;;29.10;50.80;;;;;;5018816;28;20029;-60
2021/08/05 10:47:11;;;;;;;7.45;4.00;;;29.10;50.80;;;;;;5019107;28;20524;-60
2021/08/05 10:49:37;;;;;;;12.95;5.18;;;29.10;50.70;;;;;;5014913;28;20466;-61
2021/08/05 10:52:04;;;;;;;7.05;4.40;;;29.10;51.20;;;;;;5019115;28;20547;-61
2021/08/05 10:54:58;;;;;;;6.40;3.58;;;29.10;51.30;;;;;;5018416;28;20064;-59
2021/08/05 10:57:26;;;;;;;6.63;4.03;;;29.10;51.30;;;;;;5012676;28;20037;-60
2021/08/05 11:00:05;;;;;;;7.82;3.80;;;29.10;50.50;;;;;;5020907;28;20034;-59
2021/08/05 11:02:48;;;;;;;5.63;3.40;;;29.10;50.40;;;;;;5019405;28;20041;-59
2021/08/05 11:05:23;;;;;;;4.38;3.28;;;29.10;49.90;;;;;;5012004;28;20159;-62
2021/08/05 11:08:14;;;;;;;5.78;3.85;;;29.10;49.90;;;;;;5014350;28;20139;-60
2021/08/05 11:10:40;;;;;;;5.47;3.35;;;29.10;50.30;;;;;;5018831;28;20030;-58
2021/08/05 11:13:09;;;;;;;4.38;3.75;;;29.10;50.30;;;;;;5018769;28;20025;-60
2021/08/05 11:15:34;;;;;;;6.30;4.20;;;29.10;51.00;;;;;;5016674;28;20038;-59
2021/08/05 11:18:09;;;;;;;9.98;4.43;;;29.10;51.00;;;;;;5016745;28;20101;-59
2021/08/05 11:20:35;;;;;;;9.38;5.07;;;29.10;51.80;;;;;;5019041;28;21803;-60
2021/08/05 11:23:00;;;;;;;7.00;4.00;;;29.10;51.50;;;;;;5014937;28;20107;-60
2021/08/05 11:25:52;;;;;;;9.25;4.35;;;29.10;51.80;;;;;;5016447;28;20911;-60
2021/08/05 11:28:25;;;;;;;9.48;4.70;;;29.10;51.60;;;;;;5019318;28;20065;-61
2021/08/05 11:31:02;;;;;;;9.68;4.47;;;29.10;51.80;;;;;;5019454;28;20043;-62
2021/08/05 11:33:37;;;;;;;7.30;4.25;;;29.10;52.00;;;;;;5017733;28;20029;-62
2021/08/05 11:38:59;;;;;;;9.25;4.63;;;29.10;52.90;;;;;;5019082;28;20041;-62
2021/08/05 11:41:44;;;;;;;8.77;4.65;;;29.10;52.80;;;;;;5018161;28;20702;-63
2021/08/05 11:44:28;;;;;;;5.97;4.55;;;29.10;53.00;;;;;;5016204;28;20033;-62
2021/08/05 11:47:06;;;;;;;4.65;4.15;;;29.10;52.60;;;;;;5015558;28;20973;-63
2021/08/05 11:49:37;;;;;;;6.55;5.00;;;29.10;52.50;;;;;;5014748;28;20635;-59
2021/08/05 11:52:13;;;;;;;7.00;5.50;;;29.10;52.90;;;;;;5016695;28;20076;-60
2021/08/05 11:54:42;;;;;;;7.20;5.28;;;29.20;53.10;;;;;;5014656;28;20111;-59
2021/08/05 11:57:10;;;;;;;7.22;5.05;;;29.20;53.30;;;;;;5020258;28;20397;-61
2021/08/05 11:59:42;;;;;;;8.75;4.50;;;29.20;53.20;;;;;;5018734;28;20033;-61
2021/08/05 12:02:09;;;;;;;6.47;4.30;;;29.20;52.60;;;;;;5017482;28;20157;-61
2021/08/05 12:04:35;;;;;;;5.07;4.38;;;29.20;52.30;;;;;;5014266;28;20060;-62
2021/08/05 12:07:36;;;;;;;5.20;3.97;;;29.30;52.10;;;;;;5017707;28;20429;-63
2021/08/05 12:10:20;;;;;;;6.13;4.03;;;29.20;52.00;;;;;;5009029;28;20040;-62
2021/08/05 12:12:54;;;;;;;6.13;4.22;;;29.30;52.30;;;;;;5009876;28;20071;-59
2021/08/05 12:15:32;;;;;;;6.30;3.95;;;29.20;52.50;;;;;;5014435;28;20536;-60
2021/08/05 12:18:06;;;;;;;5.90;3.63;;;29.20;52.50;;;;;;5016286;28;20030;-60
2021/08/05 12:20:38;;;;;;;4.72;4.05;;;29.20;52.50;;;;;;5014622;28;20061;-60
2021/08/05 12:23:12;;;;;;;4.72;3.95;;;29.20;52.40;;;;;;5013685;28;20766;-60
2021/08/05 12:25:47;;;;;;;4.90;3.55;;;29.20;52.40;;;;;;5013206;28;20021;-60
2021/08/05 12:28:16;;;;;;;6.80;4.75;;;29.20;52.40;;;;;;5012771;28;20589;-61
2021/08/05 12:30:52;;;;;;;5.70;4.22;;;29.10;52.50;;;;;;5012478;28;20140;-60
2021/08/05 12:33:20;;;;;;;6.13;4.78;;;29.10;52.60;;;;;;5010418;28;20036;-61
2021/08/05 12:36:13;;;;;;;6.07;4.72;;;29.10;52.90;;;;;;5012505;28;20052;-61
2021/08/05 12:39:05;;;;;;;11.38;4.95;;;29.10;53.20;;;;;;5023441;28;20597;-62
2021/08/05 12:41:52;;;;;;;5.90;4.30;;;29.10;53.40;;;;;;5015890;28;20038;-61
2021/08/05 12:44:20;;;;;;;5.97;4.07;;;29.10;53.30;;;;;;5014204;28;20051;-62
2021/08/05 12:46:56;;;;;;;5.20;4.53;;;29.10;53.20;;;;;;5014301;28;20036;-62
2021/08/05 12:49:29;;;;;;;4.53;4.10;;;29.10;53.60;;;;;;5015129;28;20052;-62
2021/08/05 12:51:59;;;;;;;4.85;4.35;;;29.20;53.00;;;;;;5012986;28;20026;-60
2021/08/05 12:54:25;;;;;;;7.68;4.10;;;29.10;52.90;;;;;;5016115;28;20033;-62